createdAt,value
2022-11-07T00:00:12.664Z,10.08
2022-11-07T00:02:14.806Z,10.10
2022-11-07T00:04:16.409Z,10.08
2022-11-07T00:06:17.839Z,10.11
2022-11-07T00:08:19.266Z,10.10
2022-11-07T00:10:20.712Z,10.10
2022-11-07T00:12:22.140Z,10.11
2022-11-07T00:14:23.890Z,10.12
2022-11-07T00:16:26.667Z,10.13
2022-11-07T00:18:28.287Z,10.14
2022-11-07T00:20:29.709Z,10.15
2022-11-07T00:22:31.183Z,10.17
2022-11-07T00:24:32.634Z,10.20
2022-11-07T00:26:34.466Z,10.19
2022-11-07T00:28:37.428Z,10.20
2022-11-07T00:30:38.863Z,10.19
2022-11-07T00:32:40.276Z,10.19
2022-11-07T00:34:41.726Z,10.18
2022-11-07T00:36:43.182Z,10.18
2022-11-07T00:38:45.066Z,10.17
2022-11-07T00:40:56.841Z,10.18
2022-11-07T00:42:58.305Z,10.18
2022-11-07T00:44:59.731Z,10.19
2022-11-07T00:47:01.178Z,10.23
2022-11-07T00:49:02.622Z,10.25
2022-11-07T00:51:11.831Z,10.28
2022-11-07T00:53:13.696Z,10.30
2022-11-07T00:55:15.449Z,10.34
2022-11-07T00:57:16.886Z,10.35
2022-11-07T00:59:18.574Z,10.41
2022-11-07T01:01:22.829Z,10.44
2022-11-07T01:03:43.424Z,10.44
2022-11-07T01:05:58.779Z,10.44
2022-11-07T01:08:00.238Z,10.45
2022-11-07T01:10:02.205Z,10.44
2022-11-07T01:12:04.108Z,10.44
2022-11-07T01:14:07.079Z,10.43
2022-11-07T01:16:10.245Z,10.45
2022-11-07T01:18:11.759Z,10.48
2022-11-07T01:20:13.262Z,10.51
2022-11-07T01:22:14.703Z,10.53
2022-11-07T01:24:16.858Z,10.55
2022-11-07T01:26:18.877Z,10.56
2022-11-07T01:28:20.308Z,10.59
2022-11-07T01:30:21.743Z,10.63
2022-11-07T01:32:23.193Z,10.65
2022-11-07T01:34:24.617Z,10.66
2022-11-07T01:36:26.749Z,10.68
2022-11-07T01:38:28.567Z,10.71
2022-11-07T01:40:30.518Z,10.72
2022-11-07T01:42:32.214Z,10.73
2022-11-07T01:44:42.517Z,10.75
2022-11-07T01:46:45.194Z,10.79
2022-11-07T01:48:59.945Z,10.83
2022-11-07T01:51:01.757Z,10.83
2022-11-07T01:53:03.296Z,10.85
2022-11-07T01:55:13.075Z,10.86
2022-11-07T01:57:20.981Z,10.88
2022-11-07T01:59:26.086Z,10.88
2022-11-07T02:01:27.773Z,10.89
2022-11-07T02:03:29.303Z,10.92
2022-11-07T02:05:53.690Z,10.93
2022-11-07T02:07:56.650Z,10.94
2022-11-07T02:09:59.133Z,10.93
2022-11-07T02:12:01.705Z,10.94
2022-11-07T02:14:03.338Z,10.96
2022-11-07T02:16:05.452Z,10.96
2022-11-07T02:18:06.981Z,10.97
2022-11-07T02:20:09.087Z,10.99
2022-11-07T02:22:35.042Z,11.02
2022-11-07T02:24:38.834Z,11.05
2022-11-07T02:26:41.584Z,11.07
2022-11-07T02:28:46.116Z,11.09
2022-11-07T02:30:47.565Z,11.08
2022-11-07T02:32:49.351Z,11.09
2022-11-07T02:35:02.915Z,11.10
2022-11-07T02:37:11.811Z,11.12
2022-11-07T02:39:13.267Z,11.12
2022-11-07T02:41:23.339Z,11.13
2022-11-07T02:43:28.129Z,11.13
2022-11-07T02:45:33.115Z,11.13
2022-11-07T02:47:34.536Z,11.13
2022-11-07T02:49:35.942Z,11.12
2022-11-07T02:51:37.489Z,11.12
2022-11-07T02:53:39.005Z,11.10
2022-11-07T02:55:40.437Z,11.10
2022-11-07T02:57:42.421Z,11.07
2022-11-07T02:59:43.835Z,11.05
2022-11-07T03:01:45.430Z,11.04
2022-11-07T03:03:49.749Z,11.04
2022-11-07T03:05:51.197Z,11.02
2022-11-07T03:07:52.759Z,11.01
2022-11-07T03:09:54.178Z,11.00
2022-11-07T03:11:55.599Z,10.99
2022-11-07T03:13:57.044Z,10.98
2022-11-07T03:15:58.933Z,10.98
2022-11-07T03:18:00.403Z,10.97
2022-11-07T03:20:02.058Z,10.96
2022-11-07T03:22:03.620Z,10.99
2022-11-07T03:24:05.623Z,11.00
2022-11-07T03:26:07.060Z,11.01
2022-11-07T03:28:08.752Z,11.03
2022-11-07T03:30:10.693Z,11.06
2022-11-07T03:32:12.141Z,11.08
2022-11-07T03:34:13.567Z,11.09
2022-11-07T03:36:15.005Z,11.12
2022-11-07T03:38:16.422Z,11.13
2022-11-07T03:40:18.000Z,11.14
2022-11-07T03:42:19.438Z,11.18
2022-11-07T03:44:21.065Z,11.19
2022-11-07T03:46:22.558Z,11.21
2022-11-07T03:48:24.112Z,11.22
2022-11-07T03:50:25.683Z,11.23
2022-11-07T03:52:27.096Z,11.23
2022-11-07T03:54:28.554Z,11.22
2022-11-07T03:56:30.063Z,11.20
2022-11-07T03:58:31.470Z,11.19
2022-11-07T04:00:32.910Z,11.18
2022-11-07T04:02:34.399Z,11.18
2022-11-07T04:04:35.909Z,11.16
2022-11-07T04:06:37.347Z,11.16
2022-11-07T04:08:38.856Z,11.16
2022-11-07T04:10:40.407Z,11.14
2022-11-07T04:13:00.322Z,11.13
2022-11-07T04:15:20.228Z,11.12
2022-11-07T04:17:21.809Z,11.11
2022-11-07T04:19:26.411Z,11.09
2022-11-07T04:21:27.961Z,11.10
2022-11-07T04:23:29.472Z,11.10
2022-11-07T04:25:49.490Z,11.09
2022-11-07T04:27:50.953Z,11.10
2022-11-07T04:29:52.390Z,11.14
2022-11-07T04:31:53.833Z,11.18
2022-11-07T04:33:55.290Z,11.21
2022-11-07T04:35:56.726Z,11.23
2022-11-07T04:37:59.027Z,11.26
2022-11-07T04:40:00.449Z,11.29
2022-11-07T04:42:01.884Z,11.32
2022-11-07T04:44:03.370Z,11.33
2022-11-07T04:46:04.940Z,11.35
2022-11-07T04:48:06.713Z,11.38
2022-11-07T04:50:11.074Z,11.39
2022-11-07T04:52:12.873Z,11.39
2022-11-07T04:54:16.311Z,11.38
2022-11-07T04:56:17.740Z,11.40
2022-11-07T04:58:19.183Z,11.40
2022-11-07T05:00:21.537Z,11.40
2022-11-07T05:02:27.626Z,11.40
2022-11-07T05:04:29.303Z,11.41
2022-11-07T05:06:35.956Z,11.40
2022-11-07T05:08:37.377Z,11.42
2022-11-07T05:10:38.884Z,11.40
2022-11-07T05:12:40.330Z,11.40
2022-11-07T05:14:41.818Z,11.39
2022-11-07T05:16:43.913Z,11.38
2022-11-07T05:18:45.696Z,11.35
2022-11-07T05:20:47.126Z,11.33
2022-11-07T05:23:06.866Z,11.31
2022-11-07T05:25:08.932Z,11.29
2022-11-07T05:27:17.673Z,11.29
2022-11-07T05:29:18.984Z,11.26
2022-11-07T05:31:20.436Z,11.26
2022-11-07T05:33:21.933Z,11.25
2022-11-07T05:35:23.783Z,11.27
2022-11-07T05:37:25.258Z,11.26
2022-11-07T05:39:26.668Z,11.26
2022-11-07T05:41:28.092Z,11.26
2022-11-07T05:43:29.539Z,11.27
2022-11-07T05:45:32.166Z,11.28
2022-11-07T05:47:33.690Z,11.27
2022-11-07T05:49:35.117Z,11.26
2022-11-07T05:51:36.586Z,11.26
2022-11-07T05:53:38.171Z,11.23
2022-11-07T05:55:39.650Z,11.24
2022-11-07T05:57:41.076Z,11.24
2022-11-07T05:59:42.529Z,11.24
2022-11-07T06:01:46.576Z,11.25
2022-11-07T06:03:50.288Z,11.24
2022-11-07T06:05:51.747Z,11.23
2022-11-07T06:07:53.157Z,11.24
2022-11-07T06:09:54.591Z,11.22
2022-11-07T06:11:56.072Z,11.22
2022-11-07T06:13:57.512Z,11.22
2022-11-07T06:15:58.949Z,11.21
2022-11-07T06:18:01.768Z,11.22
2022-11-07T06:20:04.581Z,11.23
2022-11-07T06:22:05.990Z,11.24
2022-11-07T06:24:12.411Z,11.25
2022-11-07T06:26:16.454Z,11.26
2022-11-07T06:28:17.928Z,11.27
2022-11-07T06:30:19.424Z,11.27
2022-11-07T06:32:20.855Z,11.28
2022-11-07T06:34:22.315Z,11.29
2022-11-07T06:36:23.778Z,11.30
2022-11-07T06:38:25.265Z,11.35
2022-11-07T06:40:26.751Z,11.37
2022-11-07T06:42:28.342Z,11.39
2022-11-07T06:44:29.823Z,11.43
2022-11-07T06:46:31.314Z,11.45
2022-11-07T06:48:33.488Z,11.44
2022-11-07T06:50:35.731Z,11.45
2022-11-07T06:52:37.222Z,11.42
2022-11-07T06:54:38.833Z,11.41
2022-11-07T06:56:40.404Z,11.39
2022-11-07T06:58:42.050Z,11.39
2022-11-07T07:00:43.523Z,11.34
2022-11-07T07:02:58.009Z,11.31
2022-11-07T07:05:00.380Z,11.32
2022-11-07T07:07:01.823Z,11.30
2022-11-07T07:09:06.723Z,11.29
2022-11-07T07:11:11.115Z,11.31
2022-11-07T07:13:14.193Z,11.30
2022-11-07T07:15:15.982Z,11.32
2022-11-07T07:17:17.404Z,11.37
2022-11-07T07:19:18.831Z,11.40
2022-11-07T07:21:20.337Z,11.46
2022-11-07T07:23:22.035Z,11.50
2022-11-07T07:25:23.829Z,11.55
2022-11-07T07:27:25.348Z,11.59
2022-11-07T07:29:26.816Z,11.61
2022-11-07T07:31:31.214Z,11.66
2022-11-07T07:33:32.628Z,11.70
2022-11-07T07:35:34.042Z,11.75
2022-11-07T07:37:35.534Z,11.78
2022-11-07T07:39:37.047Z,11.81
2022-11-07T07:41:40.364Z,11.81
2022-11-07T07:43:42.092Z,11.83
2022-11-07T07:45:43.548Z,11.85
2022-11-07T07:47:45.221Z,11.87
2022-11-07T07:49:46.667Z,11.88
2022-11-07T07:51:48.172Z,11.89
2022-11-07T07:53:49.604Z,11.90
2022-11-07T07:55:51.094Z,11.91
2022-11-07T07:57:52.574Z,11.92
2022-11-07T07:59:54.017Z,11.94
2022-11-07T08:01:57.367Z,11.96
2022-11-07T08:04:01.831Z,11.98
2022-11-07T08:06:05.605Z,12.00
2022-11-07T08:08:08.209Z,12.04
2022-11-07T08:10:34.902Z,12.06
2022-11-07T08:12:31.246Z,12.08
2022-11-07T08:14:32.912Z,12.09
2022-11-07T08:16:34.396Z,12.11
2022-11-07T08:18:40.811Z,12.15
2022-11-07T08:20:42.457Z,12.18
2022-11-07T08:22:43.886Z,12.20
2022-11-07T08:24:45.376Z,12.24
2022-11-07T08:26:46.852Z,12.28
2022-11-07T08:28:48.310Z,12.32
2022-11-07T08:30:55.932Z,12.32
2022-11-07T08:33:03.110Z,12.31
2022-11-07T08:35:04.882Z,12.33
2022-11-07T08:37:06.317Z,12.33
2022-11-07T08:39:07.727Z,12.33
2022-11-07T08:41:09.255Z,12.33
2022-11-07T08:43:10.979Z,12.33
2022-11-07T08:45:12.454Z,12.32
2022-11-07T08:47:14.065Z,12.32
2022-11-07T08:49:15.650Z,12.34
2022-11-07T08:51:17.105Z,12.33
2022-11-07T08:53:18.781Z,12.35
2022-11-07T08:55:20.519Z,12.37
2022-11-07T08:57:21.964Z,12.42
2022-11-07T08:59:23.428Z,12.45
2022-11-07T09:01:25.024Z,12.48
2022-11-07T09:05:48.743Z,12.55
2022-11-07T09:07:50.183Z,12.55
2022-11-07T09:09:51.616Z,12.55
2022-11-07T09:11:53.033Z,12.56
2022-11-07T09:13:55.262Z,12.56
2022-11-07T09:15:59.299Z,12.58
2022-11-07T09:18:05.618Z,12.60
2022-11-07T09:20:09.354Z,12.63
2022-11-07T09:22:10.794Z,12.65
2022-11-07T09:24:12.299Z,12.70
2022-11-07T09:26:13.793Z,12.74
2022-11-07T09:28:16.041Z,12.77
2022-11-07T09:30:18.871Z,12.80
2022-11-07T09:32:43.164Z,12.82
2022-11-07T09:34:44.928Z,12.82
2022-11-07T09:36:46.395Z,12.83
2022-11-07T09:38:47.814Z,12.82
2022-11-07T09:41:04.715Z,12.81
2022-11-07T09:43:15.092Z,12.81
2022-11-07T09:45:16.850Z,12.81
2022-11-07T09:47:23.451Z,12.79
2022-11-07T09:49:45.016Z,12.78
2022-11-07T09:51:52.318Z,12.76
2022-11-07T09:53:59.984Z,12.76
2022-11-07T09:56:06.311Z,12.74
2022-11-07T09:58:20.705Z,12.73
2022-11-07T10:00:22.736Z,12.72
2022-11-07T10:02:27.353Z,12.70
2022-11-07T10:04:29.010Z,12.69
2022-11-07T10:06:35.548Z,12.68
2022-11-07T10:09:03.448Z,12.65
2022-11-07T10:11:15.672Z,12.64
2022-11-07T10:13:38.824Z,12.66
2022-11-07T10:16:17.986Z,12.67
2022-11-07T10:18:37.307Z,12.68
2022-11-07T10:21:37.720Z,12.74
2022-11-07T10:23:49.132Z,12.84
2022-11-07T10:26:02.463Z,12.91
2022-11-07T10:28:11.730Z,12.99
2022-11-07T10:30:19.586Z,13.04
2022-11-07T10:32:20.985Z,13.08
2022-11-07T10:34:34.989Z,13.12
2022-11-07T10:36:36.455Z,13.18
2022-11-07T10:38:41.112Z,13.26
2022-11-07T10:40:43.717Z,13.29
2022-11-07T10:42:47.174Z,13.31
2022-11-07T10:44:49.069Z,13.33
2022-11-07T10:46:53.403Z,13.38
2022-11-07T10:48:58.882Z,13.43
2022-11-07T10:51:00.321Z,13.47
2022-11-07T10:53:09.694Z,13.51
2022-11-07T10:55:16.803Z,13.57
2022-11-07T10:57:22.267Z,13.60
2022-11-07T10:59:31.433Z,13.64
2022-11-07T11:01:36.282Z,13.69
2022-11-07T11:03:45.443Z,13.81
2022-11-07T11:05:47.398Z,13.88
2022-11-07T11:07:49.348Z,13.96
2022-11-07T11:09:54.665Z,14.02
2022-11-07T11:11:56.231Z,14.08
2022-11-07T11:14:11.333Z,14.12
2022-11-07T11:16:22.291Z,14.13
2022-11-07T11:18:23.874Z,14.13
2022-11-07T11:20:39.959Z,14.09
2022-11-07T11:22:42.873Z,14.03
2022-11-07T11:24:44.547Z,13.99
2022-11-07T11:26:49.055Z,13.97
2022-11-07T11:28:57.984Z,13.95
2022-11-07T11:31:05.153Z,13.93
2022-11-07T11:33:17.263Z,13.89
2022-11-07T11:35:42.380Z,13.87
2022-11-07T11:37:51.466Z,13.83
2022-11-07T11:39:58.697Z,13.81
2022-11-07T11:42:00.386Z,13.82
2022-11-07T11:44:26.650Z,13.80
2022-11-07T11:46:33.431Z,13.79
2022-11-07T11:48:44.259Z,13.82
2022-11-07T11:50:55.171Z,13.83
2022-11-07T11:52:58.420Z,13.81
2022-11-07T11:55:01.494Z,13.83
2022-11-07T11:57:45.852Z,13.89
2022-11-07T11:59:50.216Z,13.93
2022-11-07T12:01:58.370Z,13.95
2022-11-07T12:04:18.620Z,13.95
2022-11-07T12:06:40.036Z,13.94
2022-11-07T12:09:00.039Z,13.93
2022-11-07T12:11:13.560Z,13.94
2022-11-07T12:13:30.246Z,13.89
2022-11-07T12:15:52.971Z,13.84
2022-11-07T12:18:09.591Z,13.79
2022-11-07T12:20:51.733Z,13.77
2022-11-07T12:23:05.085Z,13.79
2022-11-07T12:25:21.297Z,13.82
2022-11-07T12:27:42.612Z,13.86
2022-11-07T12:30:11.339Z,13.90
2022-11-07T12:32:37.193Z,13.93
2022-11-07T12:35:05.696Z,13.97
2022-11-07T12:37:48.158Z,13.98
2022-11-07T12:40:28.587Z,14.05
2022-11-07T12:42:58.867Z,14.11
2022-11-07T12:45:19.687Z,14.14
2022-11-07T12:47:27.241Z,14.19
2022-11-07T12:49:31.443Z,14.22
2022-11-07T12:52:00.552Z,14.22
2022-11-07T12:54:48.445Z,14.21
2022-11-07T12:56:52.882Z,14.21
2022-11-07T12:58:54.882Z,14.22
2022-11-07T13:00:57.297Z,14.24
2022-11-07T13:03:10.178Z,14.26
2022-11-07T13:05:38.103Z,14.27
2022-11-07T13:07:58.368Z,14.24
2022-11-07T13:10:10.835Z,14.21
2022-11-07T13:12:36.608Z,14.20
2022-11-07T13:14:40.775Z,14.17
2022-11-07T13:16:51.383Z,14.15
2022-11-07T13:18:53.142Z,14.15
2022-11-07T13:21:06.147Z,14.15
2022-11-07T13:23:15.563Z,14.15
2022-11-07T13:25:17.698Z,14.13
2022-11-07T13:27:24.776Z,14.12
2022-11-07T13:29:35.726Z,14.12
2022-11-07T13:31:40.235Z,14.13
2022-11-07T13:33:41.687Z,14.16
2022-11-07T13:35:54.221Z,14.17
2022-11-07T13:38:08.266Z,14.19
2022-11-07T13:40:29.442Z,14.22
2022-11-07T13:42:33.637Z,14.19
2022-11-07T13:44:38.213Z,14.22
2022-11-07T13:46:46.768Z,14.22
2022-11-07T13:48:50.983Z,14.20
2022-11-07T13:50:59.266Z,14.23
2022-11-07T13:53:04.600Z,14.24
2022-11-07T13:55:20.243Z,14.24
2022-11-07T13:57:31.606Z,14.24
2022-11-07T13:59:49.949Z,14.26
2022-11-07T14:01:57.218Z,14.27
2022-11-07T14:03:58.890Z,14.29
2022-11-07T14:06:02.527Z,14.34
2022-11-07T14:08:15.814Z,14.37
2022-11-07T14:10:28.896Z,14.37
2022-11-07T14:12:30.838Z,14.37
2022-11-07T14:14:32.408Z,14.37
2022-11-07T14:16:34.067Z,14.40
2022-11-07T14:18:47.446Z,14.42
2022-11-07T14:20:51.632Z,14.47
2022-11-07T14:23:00.560Z,14.47
2022-11-07T14:25:02.046Z,14.46
2022-11-07T14:27:12.708Z,14.41
2022-11-07T14:29:21.955Z,14.38
2022-11-07T14:31:30.793Z,14.39
2022-11-07T14:33:32.241Z,14.34
2022-11-07T14:35:35.274Z,14.32
2022-11-07T14:37:36.706Z,14.30
2022-11-07T14:39:38.240Z,14.29
2022-11-07T14:41:42.158Z,14.31
2022-11-07T14:43:44.885Z,14.27
2022-11-07T14:46:11.494Z,14.26
2022-11-07T14:48:12.334Z,14.26
2022-11-07T14:50:21.996Z,14.25
2022-11-07T14:52:29.292Z,14.23
2022-11-07T14:54:37.289Z,14.21
2022-11-07T14:56:43.071Z,14.19
2022-11-07T14:58:46.271Z,14.17
2022-11-07T15:01:12.820Z,14.13
2022-11-07T15:03:21.738Z,14.11
2022-11-07T15:05:42.335Z,14.12
2022-11-07T15:07:48.999Z,14.09
2022-11-07T15:09:53.298Z,14.06
2022-11-07T15:11:58.478Z,14.04
2022-11-07T15:14:01.894Z,13.99
2022-11-07T15:16:07.011Z,13.95
2022-11-07T15:18:25.892Z,13.93
2022-11-07T15:20:36.498Z,13.89
2022-11-07T15:22:39.690Z,13.86
2022-11-07T15:24:46.591Z,13.86
2022-11-07T15:26:59.587Z,13.82
2022-11-07T15:29:20.886Z,13.77
2022-11-07T15:31:31.366Z,13.73
2022-11-07T15:33:32.941Z,13.67
2022-11-07T15:35:49.766Z,13.67
2022-11-07T15:38:01.836Z,13.65
2022-11-07T15:40:13.849Z,13.66
2022-11-07T15:42:15.723Z,13.67
2022-11-07T15:44:17.266Z,13.65
2022-11-07T15:46:22.369Z,13.63
2022-11-07T15:48:39.799Z,13.62
2022-11-07T15:50:44.050Z,13.57
2022-11-07T15:52:47.142Z,13.55
2022-11-07T15:54:48.632Z,13.54
2022-11-07T15:56:53.336Z,13.55
2022-11-07T15:58:59.233Z,13.49
2022-11-07T16:01:01.002Z,13.50
2022-11-07T16:03:02.736Z,13.51
2022-11-07T16:05:04.387Z,13.51
2022-11-07T16:07:12.100Z,13.51
2022-11-07T16:09:18.844Z,13.51
2022-11-07T16:11:20.298Z,13.49
2022-11-07T16:13:21.826Z,13.49
2022-11-07T16:15:25.147Z,13.47
2022-11-07T16:17:26.576Z,13.43
2022-11-07T16:19:30.213Z,13.43
2022-11-07T16:21:31.651Z,13.43
2022-11-07T16:23:33.119Z,13.44
2022-11-07T16:25:36.022Z,13.44
2022-11-07T16:27:37.511Z,13.45
2022-11-07T16:29:40.491Z,13.44
2022-11-07T16:31:42.107Z,13.44
2022-11-07T16:33:43.622Z,13.46
2022-11-07T16:35:47.883Z,13.44
2022-11-07T16:37:49.432Z,13.45
2022-11-07T16:39:50.858Z,13.47
2022-11-07T16:41:52.287Z,13.49
2022-11-07T16:43:53.817Z,13.48
2022-11-07T16:45:56.460Z,13.48
2022-11-07T16:47:59.223Z,13.48
2022-11-07T16:50:01.168Z,13.48
2022-11-07T16:52:03.662Z,13.46
2022-11-07T16:54:05.281Z,13.47
2022-11-07T16:56:12.566Z,13.46
2022-11-07T16:58:21.826Z,13.46
2022-11-07T17:00:23.776Z,13.47
2022-11-07T17:02:26.105Z,13.46
2022-11-07T17:04:27.635Z,13.47
2022-11-07T17:06:34.619Z,13.48
2022-11-07T17:08:43.498Z,13.47
2022-11-07T17:10:46.267Z,13.48
2022-11-07T17:12:47.886Z,13.45
2022-11-07T17:14:50.200Z,13.44
2022-11-07T17:16:52.781Z,13.42
2022-11-07T17:18:54.203Z,13.44
2022-11-07T17:20:56.420Z,13.42
2022-11-07T17:22:58.342Z,13.43
2022-11-07T17:24:59.946Z,13.43
2022-11-07T17:27:01.661Z,13.42
2022-11-07T17:29:05.767Z,13.43
2022-11-07T17:31:07.917Z,13.40
2022-11-07T17:33:09.405Z,13.43
2022-11-07T17:35:31.016Z,13.43
2022-11-07T17:37:32.880Z,13.44
2022-11-07T17:39:34.348Z,13.45
2022-11-07T17:41:35.816Z,13.46
2022-11-07T17:43:37.232Z,13.45
2022-11-07T17:45:39.673Z,13.45
2022-11-07T17:47:41.267Z,13.43
2022-11-07T17:49:42.765Z,13.43
2022-11-07T17:51:45.142Z,13.42
2022-11-07T17:53:46.781Z,13.44
2022-11-07T17:55:48.224Z,13.47
2022-11-07T17:57:49.749Z,13.48
2022-11-07T17:59:51.747Z,13.50
2022-11-07T18:01:53.370Z,13.50
2022-11-07T18:03:55.338Z,13.50
2022-11-07T18:05:56.914Z,13.48
2022-11-07T18:07:58.344Z,13.48
2022-11-07T18:10:01.853Z,13.46
2022-11-07T18:12:04.528Z,13.46
2022-11-07T18:14:05.983Z,13.43
2022-11-07T18:16:14.161Z,13.43
2022-11-07T18:18:15.898Z,13.42
2022-11-07T18:20:17.605Z,13.39
2022-11-07T18:22:19.116Z,13.34
2022-11-07T18:24:20.569Z,13.35
2022-11-07T18:26:30.615Z,13.32
2022-11-07T18:28:34.166Z,13.29
2022-11-07T18:30:36.607Z,13.28
2022-11-07T18:32:38.088Z,13.26
2022-11-07T18:34:39.621Z,13.23
2022-11-07T18:36:42.359Z,13.22
2022-11-07T18:38:44.686Z,13.19
2022-11-07T18:41:00.961Z,13.19
2022-11-07T18:43:02.448Z,13.19
2022-11-07T18:45:04.377Z,13.21
2022-11-07T18:47:05.911Z,13.17
2022-11-07T18:49:07.705Z,13.18
2022-11-07T18:51:21.086Z,13.17
2022-11-07T18:53:23.565Z,13.17
2022-11-07T18:55:27.521Z,13.17
2022-11-07T18:57:29.204Z,13.15
2022-11-07T18:59:30.694Z,13.14
2022-11-07T19:01:32.792Z,13.16
2022-11-07T19:03:35.361Z,13.17
2022-11-07T19:05:41.024Z,13.15
2022-11-07T19:07:44.840Z,13.13
2022-11-07T19:09:46.247Z,13.11
2022-11-07T19:11:47.836Z,13.09
2022-11-07T19:13:49.377Z,13.08
2022-11-07T19:15:50.950Z,13.07
2022-11-07T19:17:53.061Z,13.04
2022-11-07T19:19:54.497Z,13.05
2022-11-07T19:21:56.011Z,13.05
2022-11-07T19:23:57.526Z,13.05
2022-11-07T19:25:59.019Z,13.04
2022-11-07T19:28:00.490Z,13.05
2022-11-07T19:30:02.004Z,13.07
2022-11-07T19:32:03.814Z,13.07
2022-11-07T19:34:05.822Z,13.07
2022-11-07T19:36:12.299Z,13.04
2022-11-07T19:38:14.284Z,13.02
2022-11-07T19:40:15.827Z,13.01
2022-11-07T19:42:17.256Z,13.01
2022-11-07T19:44:18.850Z,13.02
2022-11-07T19:46:22.446Z,13.02
2022-11-07T19:48:24.005Z,13.02
2022-11-07T19:50:25.478Z,13.03
2022-11-07T19:52:26.927Z,13.01
2022-11-07T19:54:28.368Z,13.01
2022-11-07T19:56:31.728Z,13.03
2022-11-07T19:58:35.486Z,13.02
2022-11-07T20:00:37.004Z,13.01
2022-11-07T20:02:44.052Z,13.00
2022-11-07T20:04:46.811Z,12.99
2022-11-07T20:06:50.222Z,12.98
2022-11-07T20:08:52.218Z,12.97
2022-11-07T20:10:53.673Z,12.96
2022-11-07T20:12:55.680Z,12.95
2022-11-07T20:14:57.136Z,12.96
2022-11-07T20:16:59.561Z,12.95
2022-11-07T20:19:01.634Z,12.95
2022-11-07T20:21:06.197Z,12.96
2022-11-07T20:23:07.670Z,12.95
2022-11-07T20:25:09.481Z,12.96
2022-11-07T20:27:10.973Z,12.97
2022-11-07T20:29:13.680Z,12.95
2022-11-07T20:31:23.628Z,12.95
2022-11-07T20:33:25.131Z,12.96
2022-11-07T20:35:26.577Z,13.00
2022-11-07T20:37:28.041Z,12.96
2022-11-07T20:39:29.577Z,12.96
2022-11-07T20:41:31.139Z,12.96
2022-11-07T20:43:33.981Z,12.97
2022-11-07T20:45:35.874Z,12.99
2022-11-07T20:47:37.330Z,13.00
2022-11-07T20:49:41.264Z,12.99
2022-11-07T20:51:43.756Z,13.01
2022-11-07T20:53:50.040Z,13.01
2022-11-07T20:55:52.171Z,13.01
2022-11-07T20:57:55.560Z,13.01
2022-11-07T20:59:57.111Z,13.03
2022-11-07T21:02:03.011Z,13.04
2022-11-07T21:04:07.273Z,13.05
2022-11-07T21:06:11.459Z,13.05
2022-11-07T21:08:13.055Z,13.06
2022-11-07T21:10:14.896Z,13.09
2022-11-07T21:12:16.386Z,13.09
2022-11-07T21:14:17.815Z,13.11
2022-11-07T21:16:20.915Z,13.11
2022-11-07T21:18:22.560Z,13.14
2022-11-07T21:20:24.658Z,13.14
2022-11-07T21:22:29.320Z,13.14
2022-11-07T21:24:31.632Z,13.16
2022-11-07T21:26:35.891Z,13.17
2022-11-07T21:28:40.442Z,13.16
2022-11-07T21:30:41.889Z,13.18
2022-11-07T21:32:43.393Z,13.18
2022-11-07T21:34:46.259Z,13.18
2022-11-07T21:36:47.766Z,13.17
2022-11-07T21:38:49.480Z,13.17
2022-11-07T21:40:51.828Z,13.16
2022-11-07T21:42:54.979Z,13.16
2022-11-07T21:44:56.652Z,13.19
2022-11-07T21:46:58.075Z,13.20
2022-11-07T21:48:59.900Z,13.22
2022-11-07T21:51:05.436Z,13.22
2022-11-07T21:53:07.433Z,13.22
2022-11-07T21:55:08.964Z,13.23
2022-11-07T21:57:10.840Z,13.26
2022-11-07T21:59:12.360Z,13.27
2022-11-07T22:01:13.878Z,13.29
2022-11-07T22:03:15.664Z,13.30
2022-11-07T22:05:17.434Z,13.30
2022-11-07T22:07:18.985Z,13.32
2022-11-07T22:09:21.311Z,13.34
2022-11-07T22:11:22.771Z,13.33
2022-11-07T22:13:24.231Z,13.34
2022-11-07T22:15:25.664Z,13.37
2022-11-07T22:17:27.177Z,13.38
2022-11-07T22:19:28.778Z,13.38
2022-11-07T22:21:31.449Z,13.41
2022-11-07T22:23:34.955Z,13.43
2022-11-07T22:25:36.371Z,13.44
2022-11-07T22:27:37.879Z,13.48
2022-11-07T22:29:39.326Z,13.48
2022-11-07T22:31:40.752Z,13.49
2022-11-07T22:33:42.222Z,13.51
2022-11-07T22:35:43.655Z,13.51
2022-11-07T22:37:45.092Z,13.53
2022-11-07T22:39:46.603Z,13.55
2022-11-07T22:41:48.074Z,13.55
2022-11-07T22:43:50.667Z,13.56
2022-11-07T22:45:52.592Z,13.55
2022-11-07T22:47:54.039Z,13.56
2022-11-07T22:49:55.519Z,13.54
2022-11-07T22:51:56.995Z,13.53
2022-11-07T22:54:02.054Z,13.54
2022-11-07T22:56:15.350Z,13.53
2022-11-07T22:58:16.979Z,13.50
2022-11-07T23:00:21.817Z,13.50
2022-11-07T23:02:23.762Z,13.46
2022-11-07T23:04:28.686Z,13.44
2022-11-07T23:06:34.151Z,13.41
2022-11-07T23:08:36.129Z,13.38
2022-11-07T23:10:37.625Z,13.35
2022-11-07T23:12:39.076Z,13.34
2022-11-07T23:14:40.522Z,13.32
2022-11-07T23:16:48.204Z,13.29
2022-11-07T23:18:49.727Z,13.26
2022-11-07T23:21:26.571Z,13.29
2022-11-07T23:23:28.016Z,13.25
2022-11-07T23:25:29.497Z,13.26
2022-11-07T23:27:30.953Z,13.24
2022-11-07T23:29:32.395Z,13.23
2022-11-07T23:31:34.199Z,13.20
2022-11-07T23:33:37.037Z,13.18
2022-11-07T23:35:38.651Z,13.18
2022-11-07T23:37:40.073Z,13.18
2022-11-07T23:39:42.165Z,13.16
2022-11-07T23:41:44.600Z,13.16
2022-11-07T23:43:49.830Z,13.12
2022-11-07T23:46:12.155Z,13.11
2022-11-07T23:48:32.446Z,13.08
2022-11-07T23:50:52.368Z,13.08
2022-11-07T23:52:55.040Z,13.06
2022-11-07T23:55:15.005Z,13.06
2022-11-07T23:57:16.464Z,13.05
2022-11-07T23:59:36.635Z,13.05
